Time;durP1;ratioP1;P1;durP2;ratioP2;P2;SDS_P1;SDS_P2;PMS_P1;PMS_P2;Temp;Humidity;BMP_temperature;BMP_pressure;BME280_temperature;BME280_humidity;BME280_pressure;Samples;Min_cycle;Max_cycle;Signal;HPM_P1;HPM_P2
2024/02/27 00:00:57;;;;;;;;;;;22.90;40.60;;;;;;5074517;28;19978;-64
2024/02/27 00:03:24;;;;;;;;;;;22.90;40.60;;;;;;5074728;28;19932;-63
2024/02/27 00:05:51;;;;;;;;;;;22.90;40.60;;;;;;5074262;28;20381;-63
2024/02/27 00:08:18;;;;;;;;;;;22.90;40.60;;;;;;5074614;28;19931;-63
2024/02/27 00:10:45;;;;;;;;;;;22.90;40.60;;;;;;5074433;28;19932;-63
2024/02/27 00:13:12;;;;;;;;;;;22.90;40.60;;;;;;5073802;28;19963;-64
2024/02/27 00:15:39;;;;;;;;;;;22.90;40.50;;;;;;5073990;28;19929;-63
2024/02/27 00:18:06;;;;;;;;;;;22.90;40.50;;;;;;5073905;28;19978;-63
2024/02/27 00:20:33;;;;;;;;;;;22.90;40.50;;;;;;5074051;28;19940;-64
2024/02/27 00:23:00;;;;;;;;;;;22.90;40.40;;;;;;5073923;28;19924;-64
2024/02/27 00:25:27;;;;;;;;;;;22.90;40.40;;;;;;5074172;28;19928;-63
2024/02/27 00:27:54;;;;;;;;;;;22.90;40.50;;;;;;5073922;28;20374;-63
2024/02/27 00:30:21;;;;;;;;;;;22.90;40.40;;;;;;5072837;28;19951;-63
2024/02/27 00:32:48;;;;;;;;;;;22.80;40.40;;;;;;5073614;28;20374;-64
2024/02/27 00:35:15;;;;;;;;;;;22.90;40.50;;;;;;5073511;28;19981;-63
2024/02/27 00:37:42;;;;;;;;;;;22.80;40.50;;;;;;5074083;28;20020;-64
2024/02/27 00:40:09;;;;;;;;;;;22.80;40.50;;;;;;5073882;28;20011;-63
2024/02/27 00:42:36;;;;;;;;;;;22.80;40.50;;;;;;5073743;28;20011;-64
2024/02/27 00:45:03;;;;;;;;;;;22.80;40.50;;;;;;5072197;28;19924;-63
2024/02/27 00:47:30;;;;;;;;;;;22.80;40.50;;;;;;5073644;28;19978;-63
2024/02/27 00:49:57;;;;;;;;;;;22.80;40.50;;;;;;5073357;28;19978;-63
2024/02/27 00:52:24;;;;;;;;;;;22.80;40.50;;;;;;5073394;28;20439;-63
2024/02/27 00:54:51;;;;;;;;;;;22.80;40.50;;;;;;5072096;28;19932;-63
2024/02/27 00:57:18;;;;;;;;;;;22.80;40.50;;;;;;5073302;28;19931;-63
2024/02/27 00:59:45;;;;;;;;;;;22.90;40.60;;;;;;5073458;28;20019;-64
2024/02/27 01:02:12;;;;;;;;;;;22.80;40.50;;;;;;5073583;28;19955;-64
2024/02/27 01:04:38;;;;;;;;;;;22.80;40.50;;;;;;5071703;28;20396;-64
2024/02/27 01:07:05;;;;;;;;;;;22.80;40.50;;;;;;5072535;28;20293;-63
2024/02/27 01:09:33;;;;;;;;;;;22.80;40.50;;;;;;5072613;28;20015;-63
2024/02/27 01:12:01;;;;;;;;;;;22.80;40.50;;;;;;5073105;28;19932;-64
2024/02/27 01:14:27;;;;;;;;;;;22.80;40.60;;;;;;5073016;28;19947;-63
2024/02/27 01:16:54;;;;;;;;;;;22.80;40.60;;;;;;5073244;28;20405;-63
2024/02/27 01:19:22;;;;;;;;;;;22.70;40.50;;;;;;5071662;28;19996;-63
2024/02/27 01:21:49;;;;;;;;;;;22.70;40.60;;;;;;5073060;28;19925;-64
2024/02/27 01:24:16;;;;;;;;;;;22.70;40.50;;;;;;5072784;28;19967;-63
2024/02/27 01:26:42;;;;;;;;;;;22.80;40.50;;;;;;5073383;28;19943;-64
2024/02/27 01:29:09;;;;;;;;;;;22.80;40.50;;;;;;5073224;28;19951;-63
2024/02/27 01:31:36;;;;;;;;;;;22.80;40.40;;;;;;5073133;28;19959;-63
2024/02/27 01:34:04;;;;;;;;;;;22.80;40.40;;;;;;5072968;28;19964;-63
2024/02/27 01:36:31;;;;;;;;;;;22.80;40.40;;;;;;5071907;28;19924;-63
2024/02/27 01:38:58;;;;;;;;;;;22.80;40.50;;;;;;5072854;28;20023;-63
2024/02/27 01:41:25;;;;;;;;;;;22.80;40.50;;;;;;5072635;28;19929;-63
2024/02/27 01:43:52;;;;;;;;;;;22.70;40.40;;;;;;5072822;28;19925;-63
2024/02/27 01:46:20;;;;;;;;;;;22.70;40.40;;;;;;5073257;28;19924;-63
2024/02/27 01:48:47;;;;;;;;;;;22.70;40.50;;;;;;5071728;28;19970;-64
2024/02/27 01:51:15;;;;;;;;;;;22.70;40.50;;;;;;5072671;28;19929;-63
2024/02/27 01:53:43;;;;;;;;;;;22.70;40.50;;;;;;5073041;28;19925;-63
2024/02/27 01:56:10;;;;;;;;;;;22.70;40.50;;;;;;5073106;28;20357;-63
2024/02/27 01:58:38;;;;;;;;;;;22.80;40.50;;;;;;5072835;28;19956;-63
2024/02/27 02:01:05;;;;;;;;;;;22.70;40.50;;;;;;5072433;28;20374;-64
2024/02/27 02:03:35;;;;;;;;;;;22.70;40.50;;;;;;5072676;28;19925;-63
2024/02/27 02:06:03;;;;;;;;;;;22.70;40.50;;;;;;5072920;28;19931;-63
2024/02/27 02:08:31;;;;;;;;;;;22.70;40.50;;;;;;5072555;28;19929;-63
2024/02/27 02:10:59;;;;;;;;;;;22.70;40.50;;;;;;5073020;28;20004;-63
2024/02/27 02:13:26;;;;;;;;;;;22.70;40.50;;;;;;5072426;28;19925;-63
2024/02/27 02:15:53;;;;;;;;;;;22.70;40.50;;;;;;5072922;28;19971;-64
2024/02/27 02:18:20;;;;;;;;;;;22.70;40.60;;;;;;5072419;28;19929;-63
2024/02/27 02:20:47;;;;;;;;;;;22.70;40.60;;;;;;5072085;28;19925;-63
2024/02/27 02:23:14;;;;;;;;;;;22.70;40.60;;;;;;5075786;28;19924;-64
2024/02/27 02:25:41;;;;;;;;;;;22.70;40.60;;;;;;5076497;28;19925;-64
2024/02/27 02:28:08;;;;;;;;;;;22.70;40.60;;;;;;5076318;28;19960;-64
2024/02/27 02:30:35;;;;;;;;;;;22.60;40.50;;;;;;5075942;28;20431;-64
2024/02/27 02:33:02;;;;;;;;;;;22.60;40.50;;;;;;5074713;28;19931;-64
2024/02/27 02:35:29;;;;;;;;;;;22.70;40.50;;;;;;5076237;28;20309;-64
2024/02/27 02:37:56;;;;;;;;;;;22.70;40.50;;;;;;5074933;28;19932;-64
2024/02/27 02:40:23;;;;;;;;;;;22.70;40.40;;;;;;5074543;28;19931;-63
2024/02/27 02:42:50;;;;;;;;;;;22.70;40.40;;;;;;5075916;28;19935;-63
2024/02/27 02:45:17;;;;;;;;;;;22.70;40.40;;;;;;5075968;28;20003;-64
2024/02/27 02:47:44;;;;;;;;;;;22.70;40.50;;;;;;5076186;28;20267;-64
2024/02/27 02:50:13;;;;;;;;;;;22.70;40.40;;;;;;5075784;28;19975;-63
2024/02/27 02:52:40;;;;;;;;;;;22.70;40.50;;;;;;5074220;28;19928;-63
2024/02/27 02:55:08;;;;;;;;;;;22.70;40.50;;;;;;5074913;28;20007;-63
2024/02/27 02:57:35;;;;;;;;;;;22.70;40.50;;;;;;5075995;28;19924;-64
2024/02/27 03:00:04;;;;;;;;;;;22.60;40.50;;;;;;5075474;28;19947;-64
2024/02/27 03:02:31;;;;;;;;;;;22.70;40.60;;;;;;5075040;28;19928;-63
2024/02/27 03:04:58;;;;;;;;;;;22.60;40.50;;;;;;5074186;28;19931;-65
2024/02/27 03:07:25;;;;;;;;;;;22.60;40.50;;;;;;5075706;28;19970;-64
2024/02/27 03:09:52;;;;;;;;;;;22.60;40.50;;;;;;5075433;28;19928;-63
2024/02/27 03:12:19;;;;;;;;;;;22.60;40.50;;;;;;5075624;28;19925;-63
2024/02/27 03:14:46;;;;;;;;;;;22.60;40.50;;;;;;5075468;28;19928;-64
2024/02/27 03:17:14;;;;;;;;;;;22.60;40.50;;;;;;5075326;28;20408;-63
2024/02/27 03:19:41;;;;;;;;;;;22.60;40.50;;;;;;5075171;28;20370;-63
2024/02/27 03:22:10;;;;;;;;;;;22.60;40.50;;;;;;5074327;28;20550;-63
2024/02/27 03:24:38;;;;;;;;;;;22.60;40.50;;;;;;5075146;28;20042;-63
2024/02/27 03:27:06;;;;;;;;;;;22.60;40.50;;;;;;5075153;28;19925;-64
2024/02/27 03:29:33;;;;;;;;;;;22.60;40.50;;;;;;5074989;28;20362;-64
2024/02/27 03:32:00;;;;;;;;;;;22.60;40.50;;;;;;5074465;28;20449;-63
2024/02/27 03:34:26;;;;;;;;;;;22.60;40.50;;;;;;5074670;28;19931;-64
2024/02/27 03:36:53;;;;;;;;;;;22.60;40.50;;;;;;5075048;28;20370;-63
2024/02/27 03:39:20;;;;;;;;;;;22.60;40.50;;;;;;5075046;28;20023;-64
2024/02/27 03:41:47;;;;;;;;;;;22.50;40.50;;;;;;5074585;28;19932;-64
2024/02/27 03:44:14;;;;;;;;;;;22.60;40.50;;;;;;5074665;28;20251;-63
2024/02/27 03:46:41;;;;;;;;;;;22.50;40.40;;;;;;5074954;28;20012;-64
2024/02/27 03:49:08;;;;;;;;;;;22.60;40.40;;;;;;5074991;28;20014;-64
2024/02/27 03:51:35;;;;;;;;;;;22.60;40.40;;;;;;5074913;28;19931;-64
2024/02/27 03:54:03;;;;;;;;;;;22.60;40.40;;;;;;5074563;28;19931;-63
2024/02/27 03:56:30;;;;;;;;;;;22.60;40.40;;;;;;5074888;28;20395;-64
2024/02/27 03:58:57;;;;;;;;;;;22.60;40.50;;;;;;5074473;28;19971;-63
2024/02/27 04:01:24;;;;;;;;;;;22.50;40.40;;;;;;5074238;28;20011;-64
2024/02/27 04:03:51;;;;;;;;;;;22.50;40.40;;;;;;5074011;28;19928;-64
2024/02/27 04:06:17;;;;;;;;;;;22.50;40.50;;;;;;5074319;28;19971;-64
2024/02/27 04:08:44;;;;;;;;;;;22.50;40.50;;;;;;5074607;28;20282;-64
2024/02/27 04:11:11;;;;;;;;;;;22.50;40.50;;;;;;5074454;28;19994;-63
2024/02/27 04:13:38;;;;;;;;;;;22.50;40.50;;;;;;5074080;28;19985;-64
2024/02/27 04:16:05;;;;;;;;;;;22.50;40.50;;;;;;5074403;28;19931;-64
2024/02/27 04:18:32;;;;;;;;;;;22.50;40.50;;;;;;5074186;28;19924;-64
2024/02/27 04:20:59;;;;;;;;;;;22.50;40.50;;;;;;5074242;28;19925;-64
2024/02/27 04:23:26;;;;;;;;;;;22.50;40.50;;;;;;5073895;28;19978;-64
2024/02/27 04:25:53;;;;;;;;;;;22.50;40.50;;;;;;5074088;28;20388;-63
2024/02/27 04:28:20;;;;;;;;;;;22.50;40.50;;;;;;5074088;28;19928;-64
2024/02/27 04:30:47;;;;;;;;;;;22.50;40.50;;;;;;5073977;28;19931;-64
2024/02/27 04:33:14;;;;;;;;;;;22.50;40.50;;;;;;5072589;28;19924;-64
2024/02/27 04:35:41;;;;;;;;;;;22.50;40.50;;;;;;5072471;28;19975;-63
2024/02/27 04:38:08;;;;;;;;;;;22.50;40.60;;;;;;5067329;28;20329;-64
2024/02/27 04:40:35;;;;;;;;;;;22.50;40.50;;;;;;5072006;28;20007;-64
2024/02/27 04:43:02;;;;;;;;;;;22.40;40.30;;;;;;5073225;28;19963;-63
2024/02/27 04:45:29;;;;;;;;;;;22.40;40.10;;;;;;5072485;28;19924;-63
2024/02/27 04:47:56;;;;;;;;;;;22.50;40.10;;;;;;5073709;28;20015;-63
2024/02/27 04:50:23;;;;;;;;;;;22.40;40.00;;;;;;5073290;28;19930;-63
2024/02/27 04:52:50;;;;;;;;;;;22.50;40.10;;;;;;5073859;28;19928;-64
2024/02/27 04:55:17;;;;;;;;;;;22.40;40.00;;;;;;5073053;28;19924;-64
2024/02/27 04:57:44;;;;;;;;;;;22.40;39.90;;;;;;5073581;28;20294;-63
2024/02/27 05:00:11;;;;;;;;;;;22.40;39.70;;;;;;5072976;28;19934;-64
2024/02/27 05:05:05;;;;;;;;;;;22.50;39.60;;;;;;5073403;28;19928;-63
2024/02/27 05:07:32;;;;;;;;;;;22.50;39.50;;;;;;5073720;28;20369;-63
2024/02/27 05:09:59;;;;;;;;;;;22.50;39.40;;;;;;5073095;28;19999;-64
2024/02/27 05:12:26;;;;;;;;;;;22.50;39.30;;;;;;5073245;28;19928;-64
2024/02/27 05:14:53;;;;;;;;;;;22.60;39.40;;;;;;5073269;28;19931;-63
2024/02/27 05:17:20;;;;;;;;;;;22.60;39.30;;;;;;5069751;28;19951;-64
2024/02/27 05:19:46;;;;;;;;;;;22.60;39.20;;;;;;5071855;28;19924;-63
2024/02/27 05:22:13;;;;;;;;;;;22.70;39.20;;;;;;5071580;28;20043;-63
2024/02/27 05:24:40;;;;;;;;;;;22.70;39.10;;;;;;5071291;28;19939;-63
2024/02/27 05:27:07;;;;;;;;;;;22.70;39.00;;;;;;5072688;28;19976;-63
2024/02/27 05:29:34;;;;;;;;;;;22.70;38.90;;;;;;5071874;28;19928;-63
2024/02/27 05:32:01;;;;;;;;;;;22.80;38.90;;;;;;5072609;28;19982;-63
2024/02/27 05:34:28;;;;;;;;;;;22.80;38.70;;;;;;5072660;28;19931;-63
2024/02/27 05:36:55;;;;;;;;;;;22.90;38.70;;;;;;5073090;28;19924;-63
2024/02/27 05:39:22;;;;;;;;;;;23.00;38.70;;;;;;5072644;28;19929;-65
2024/02/27 05:41:51;;;;;;;;;;;23.00;38.60;;;;;;5073712;28;19924;-63
2024/02/27 05:44:18;;;;;;;;;;;23.00;38.40;;;;;;5074272;28;19924;-63
2024/02/27 05:46:44;;;;;;;;;;;23.10;38.40;;;;;;5060944;28;19929;-63
2024/02/27 05:49:12;;;;;;;;;;;23.10;38.30;;;;;;5055247;28;20003;-63
2024/02/27 05:51:40;;;;;;;;;;;23.10;38.20;;;;;;5072990;28;20370;-63
2024/02/27 05:54:07;;;;;;;;;;;23.20;38.20;;;;;;5072504;28;19925;-63
2024/02/27 05:56:34;;;;;;;;;;;23.20;38.10;;;;;;5074322;28;19924;-64
2024/02/27 05:59:01;;;;;;;;;;;23.30;38.10;;;;;;5074570;28;19928;-64
2024/02/27 06:01:28;;;;;;;;;;;23.30;38.00;;;;;;5076294;28;20337;-64
2024/02/27 06:03:55;;;;;;;;;;;23.40;37.90;;;;;;5076012;28;20305;-63
2024/02/27 06:06:22;;;;;;;;;;;23.40;37.80;;;;;;5075581;28;19924;-63
2024/02/27 06:08:49;;;;;;;;;;;23.40;37.70;;;;;;5075450;28;19925;-63
2024/02/27 06:11:16;;;;;;;;;;;23.40;37.60;;;;;;5076544;28;19963;-63
2024/02/27 06:13:44;;;;;;;;;;;23.50;37.60;;;;;;5075214;28;20332;-63
2024/02/27 06:16:11;;;;;;;;;;;23.50;37.50;;;;;;5075631;28;19934;-63
2024/02/27 06:18:41;;;;;;;;;;;23.60;37.60;;;;;;5068795;28;19929;-63
2024/02/27 06:23:56;;;;;;;;;;;23.60;37.60;;;;;;5068985;28;20494;-65
2024/02/27 06:26:22;;;;;;;;;;;23.70;37.50;;;;;;5068752;28;19924;-67
2024/02/27 06:28:49;;;;;;;;;;;23.70;37.50;;;;;;5069239;28;19950;-68
2024/02/27 06:31:16;;;;;;;;;;;23.70;37.40;;;;;;5061471;28;19960;-67
2024/02/27 06:33:43;;;;;;;;;;;23.70;37.50;;;;;;5064872;28;20060;-69
2024/02/27 06:36:11;;;;;;;;;;;23.70;37.60;;;;;;5059624;28;19947;-67
2024/02/27 06:38:38;;;;;;;;;;;23.70;37.80;;;;;;5065923;28;19940;-66
2024/02/27 06:41:05;;;;;;;;;;;23.70;38.00;;;;;;5066424;28;19951;-69
2024/02/27 06:43:33;;;;;;;;;;;23.70;38.10;;;;;;5063713;28;19932;-65
2024/02/27 06:45:59;;;;;;;;;;;23.70;38.10;;;;;;5068181;28;19974;-72
2024/02/27 06:48:28;;;;;;;;;;;23.70;38.20;;;;;;5066621;28;19925;-68
2024/02/27 06:50:56;;;;;;;;;;;23.70;38.20;;;;;;5070804;28;19925;-70
2024/02/27 06:53:23;;;;;;;;;;;23.70;38.30;;;;;;5063305;28;19974;-70
2024/02/27 06:55:50;;;;;;;;;;;23.80;38.30;;;;;;5068837;28;19978;-72
2024/02/27 06:58:17;;;;;;;;;;;23.80;38.30;;;;;;5071002;28;19932;-73
2024/02/27 07:00:44;;;;;;;;;;;23.80;38.30;;;;;;5062694;28;19978;-66
2024/02/27 07:03:12;;;;;;;;;;;23.80;38.20;;;;;;5061893;28;20842;-69
2024/02/27 07:05:39;;;;;;;;;;;23.80;38.00;;;;;;5060400;28;19928;-70
2024/02/27 07:08:19;;;;;;;;;;;23.80;37.90;;;;;;5070643;28;20097;-70
2024/02/27 07:10:46;;;;;;;;;;;23.90;38.00;;;;;;5063082;28;20372;-68
2024/02/27 07:13:14;;;;;;;;;;;23.90;37.90;;;;;;5063455;28;19928;-69
2024/02/27 07:15:41;;;;;;;;;;;23.90;37.90;;;;;;5060188;28;20337;-68
2024/02/27 07:18:09;;;;;;;;;;;23.90;37.90;;;;;;5069364;28;19932;-68
2024/02/27 07:20:36;;;;;;;;;;;23.90;38.00;;;;;;5060782;28;20721;-64
2024/02/27 07:23:03;;;;;;;;;;;24.00;38.00;;;;;;5066136;28;19972;-67
2024/02/27 07:25:30;;;;;;;;;;;24.00;38.10;;;;;;5066285;28;19959;-66
2024/02/27 07:27:57;;;;;;;;;;;24.00;38.10;;;;;;5067011;28;19932;-70
2024/02/27 07:30:26;;;;;;;;;;;24.00;37.90;;;;;;5062244;28;19932;-68
2024/02/27 07:32:54;;;;;;;;;;;24.10;37.90;;;;;;5054738;28;19924;-66
2024/02/27 07:35:21;;;;;;;;;;;24.10;37.80;;;;;;5060139;28;19990;-67
2024/02/27 07:37:48;;;;;;;;;;;24.10;38.30;;;;;;5069674;28;19931;-68
2024/02/27 07:40:15;;;;;;;;;;;24.10;37.60;;;;;;5063326;28;20031;-66
2024/02/27 07:42:42;;;;;;;;;;;24.10;37.50;;;;;;5062638;28;20356;-72
2024/02/27 07:45:09;;;;;;;;;;;24.10;37.40;;;;;;5062807;28;19925;-67
2024/02/27 07:47:36;;;;;;;;;;;24.10;37.40;;;;;;5063545;28;20013;-69
2024/02/27 07:50:04;;;;;;;;;;;24.10;37.50;;;;;;5065148;28;19931;-68
2024/02/27 07:52:31;;;;;;;;;;;24.10;37.50;;;;;;5063998;28;19928;-71
2024/02/27 07:54:58;;;;;;;;;;;24.20;37.60;;;;;;5062995;28;19928;-70
2024/02/27 07:57:24;;;;;;;;;;;24.20;37.70;;;;;;5064150;28;20501;-72
2024/02/27 07:59:52;;;;;;;;;;;24.20;37.90;;;;;;5055034;28;19982;-66
2024/02/27 08:02:19;;;;;;;;;;;24.20;37.90;;;;;;5064824;28;19929;-67
2024/02/27 08:04:46;;;;;;;;;;;24.30;37.90;;;;;;5064230;28;19972;-69
2024/02/27 08:07:13;;;;;;;;;;;24.30;37.80;;;;;;5063774;28;19933;-68
2024/02/27 08:09:40;;;;;;;;;;;24.30;37.90;;;;;;5068327;28;19932;-64
2024/02/27 08:12:07;;;;;;;;;;;24.30;38.20;;;;;;5060270;28;19931;-66
2024/02/27 08:14:34;;;;;;;;;;;24.40;38.10;;;;;;5062928;28;20055;-66
2024/02/27 08:17:01;;;;;;;;;;;24.50;37.80;;;;;;5062184;28;19924;-66
2024/02/27 08:19:29;;;;;;;;;;;24.50;37.60;;;;;;5063334;28;20086;-65
2024/02/27 08:22:03;;;;;;;;;;;24.60;37.60;;;;;;5060524;28;20373;-68
2024/02/27 08:24:31;;;;;;;;;;;24.60;37.30;;;;;;5062297;28;20293;-70
2024/02/27 08:26:58;;;;;;;;;;;24.70;37.30;;;;;;5063156;28;19933;-71
2024/02/27 08:29:26;;;;;;;;;;;24.70;37.40;;;;;;5064379;28;20479;-69
2024/02/27 08:31:53;;;;;;;;;;;24.70;37.30;;;;;;5061446;28;20012;-68
2024/02/27 08:34:22;;;;;;;;;;;24.70;37.30;;;;;;5066705;28;19932;-69
2024/02/27 08:36:49;;;;;;;;;;;24.80;37.30;;;;;;5065732;28;19931;-67
2024/02/27 08:39:16;;;;;;;;;;;24.80;37.20;;;;;;5064367;28;19928;-66
2024/02/27 08:41:44;;;;;;;;;;;24.80;37.20;;;;;;5061187;28;20215;-68
2024/02/27 08:44:11;;;;;;;;;;;24.90;37.10;;;;;;5058602;28;20385;-66
2024/02/27 08:46:39;;;;;;;;;;;24.90;37.00;;;;;;5061078;28;20007;-63
2024/02/27 08:49:06;;;;;;;;;;;24.90;36.90;;;;;;5062758;28;19967;-66
2024/02/27 08:51:33;;;;;;;;;;;25.00;36.90;;;;;;5062927;28;19956;-64
2024/02/27 08:54:01;;;;;;;;;;;25.00;36.90;;;;;;5064561;28;20002;-62
2024/02/27 08:56:28;;;;;;;;;;;25.00;37.00;;;;;;5063558;28;19936;-62
2024/02/27 08:58:55;;;;;;;;;;;25.10;37.20;;;;;;5061194;28;19925;-68
2024/02/27 09:01:22;;;;;;;;;;;25.10;37.10;;;;;;5052702;28;19928;-61
2024/02/27 09:03:49;;;;;;;;;;;25.10;37.00;;;;;;5059174;28;19932;-60
2024/02/27 09:06:16;;;;;;;;;;;25.10;36.90;;;;;;5045375;28;20634;-62
2024/02/27 09:08:43;;;;;;;;;;;25.10;36.80;;;;;;5061198;28;20302;-64
2024/02/27 09:11:10;;;;;;;;;;;25.10;36.80;;;;;;5060258;28;19940;-63
2024/02/27 09:13:37;;;;;;;;;;;25.00;36.90;;;;;;5055569;28;21715;-63
2024/02/27 09:16:05;;;;;;;;;;;25.10;37.10;;;;;;5036689;28;20042;-64
2024/02/27 09:18:32;;;;;;;;;;;25.00;37.20;;;;;;5036880;28;20315;-63
2024/02/27 09:21:01;;;;;;;;;;;25.10;37.40;;;;;;5036619;28;19932;-65
2024/02/27 09:23:28;;;;;;;;;;;25.00;37.40;;;;;;5035886;28;19939;-63
2024/02/27 09:25:55;;;;;;;;;;;25.00;37.50;;;;;;5070976;28;19956;-64
2024/02/27 09:28:22;;;;;;;;;;;25.00;37.60;;;;;;5033939;28;19932;-66
2024/02/27 09:30:49;;;;;;;;;;;25.00;37.60;;;;;;5039029;28;19939;-65
2024/02/27 09:33:16;;;;;;;;;;;25.00;37.50;;;;;;5036825;28;20082;-64
2024/02/27 09:35:45;;;;;;;;;;;25.00;37.50;;;;;;5036055;28;20058;-63
2024/02/27 09:38:12;;;;;;;;;;;25.10;37.60;;;;;;5037715;28;19939;-64
2024/02/27 09:40:41;;;;;;;;;;;25.10;37.60;;;;;;5041928;28;19932;-63
2024/02/27 09:43:12;;;;;;;;;;;25.10;37.60;;;;;;5037949;28;19939;-64
2024/02/27 09:45:39;;;;;;;;;;;25.10;37.60;;;;;;5040992;28;19932;-65
2024/02/27 09:48:07;;;;;;;;;;;25.10;37.60;;;;;;5038424;28;19932;-66
2024/02/27 09:50:35;;;;;;;;;;;25.10;37.50;;;;;;5038335;28;20408;-64
2024/02/27 09:53:02;;;;;;;;;;;25.10;37.40;;;;;;5032479;28;19936;-64
2024/02/27 09:55:30;;;;;;;;;;;25.10;37.50;;;;;;5033724;28;20038;-66
2024/02/27 09:57:58;;;;;;;;;;;25.10;37.50;;;;;;5034331;28;19954;-62
2024/02/27 10:00:25;;;;;;;;;;;25.10;37.50;;;;;;5035981;28;21221;-63
2024/02/27 10:02:52;;;;;;;;;;;25.10;37.40;;;;;;5037310;28;19970;-66
2024/02/27 10:05:21;;;;;;;;;;;25.10;37.70;;;;;;5036787;28;19939;-64
2024/02/27 10:07:49;;;;;;;;;;;25.10;37.30;;;;;;5035581;28;19940;-64
2024/02/27 10:10:17;;;;;;;;;;;25.20;37.20;;;;;;5062942;28;21647;-64
2024/02/27 10:12:44;;;;;;;;;;;25.20;37.10;;;;;;5065790;28;19935;-64
2024/02/27 10:15:11;;;;;;;;;;;25.20;37.00;;;;;;5067769;28;20419;-65
2024/02/27 10:17:38;;;;;;;;;;;25.20;36.90;;;;;;5057980;28;19986;-62
2024/02/27 10:20:10;;;;;;;;;;;25.30;37.00;;;;;;5063730;28;19947;-64
2024/02/27 10:22:40;;;;;;;;;;;25.30;36.90;;;;;;5065117;28;19925;-65
2024/02/27 10:25:10;;;;;;;;;;;25.40;36.80;;;;;;5063692;28;20432;-65
2024/02/27 10:27:40;;;;;;;;;;;25.40;36.70;;;;;;5067409;28;19960;-66
2024/02/27 10:30:09;;;;;;;;;;;25.50;36.70;;;;;;5063058;28;19955;-67
2024/02/27 10:32:36;;;;;;;;;;;25.60;36.90;;;;;;5069272;28;19977;-66
2024/02/27 10:35:03;;;;;;;;;;;25.60;36.80;;;;;;5067539;28;20012;-68
2024/02/27 10:37:35;;;;;;;;;;;25.60;37.30;;;;;;5064207;28;20309;-65
2024/02/27 10:40:06;;;;;;;;;;;25.60;36.70;;;;;;5060857;28;19974;-66
2024/02/27 10:42:33;;;;;;;;;;;25.70;36.70;;;;;;5058895;28;19936;-65
2024/02/27 10:45:00;;;;;;;;;;;25.70;36.60;;;;;;5068159;28;19964;-67
2024/02/27 10:47:28;;;;;;;;;;;25.70;36.60;;;;;;5068027;28;20027;-66
2024/02/27 10:49:55;;;;;;;;;;;25.70;36.70;;;;;;5078561;28;19974;-68
2024/02/27 10:52:28;;;;;;;;;;;25.70;36.60;;;;;;5072039;28;19929;-68
2024/02/27 10:54:55;;;;;;;;;;;25.70;36.80;;;;;;5063074;28;20593;-69
2024/02/27 10:57:24;;;;;;;;;;;25.70;36.70;;;;;;5066406;28;20328;-66
2024/02/27 10:59:52;;;;;;;;;;;25.70;36.80;;;;;;5084789;28;20039;-67
2024/02/27 11:02:19;;;;;;;;;;;25.70;36.80;;;;;;5068760;28;19929;-71
2024/02/27 11:04:47;;;;;;;;;;;25.70;36.90;;;;;;5070670;28;20303;-71
2024/02/27 11:07:15;;;;;;;;;;;25.70;36.90;;;;;;5066795;28;20280;-72
2024/02/27 11:09:48;;;;;;;;;;;25.70;36.80;;;;;;5063766;28;20027;-70
2024/02/27 11:12:16;;;;;;;;;;;25.70;36.90;;;;;;5068954;28;19924;-68
2024/02/27 11:14:45;;;;;;;;;;;25.70;36.90;;;;;;5067656;28;20013;-68
2024/02/27 11:17:18;;;;;;;;;;;25.70;37.10;;;;;;5068548;28;19929;-71
2024/02/27 11:19:49;;;;;;;;;;;25.70;37.10;;;;;;5063750;28;19935;-70
2024/02/27 11:22:17;;;;;;;;;;;25.80;37.00;;;;;;5067125;28;19932;-71
2024/02/27 11:24:45;;;;;;;;;;;25.80;37.00;;;;;;5070898;28;20317;-70
2024/02/27 11:27:14;;;;;;;;;;;25.80;36.90;;;;;;5066650;28;19940;-71
2024/02/27 11:29:41;;;;;;;;;;;25.80;36.90;;;;;;5061879;28;19931;-70
2024/02/27 11:32:09;;;;;;;;;;;25.80;36.90;;;;;;5066385;28;20015;-69
2024/02/27 11:34:35;;;;;;;;;;;25.80;36.90;;;;;;5063436;28;19933;-69
2024/02/27 11:37:07;;;;;;;;;;;25.70;36.90;;;;;;5066349;28;19928;-69
2024/02/27 11:39:34;;;;;;;;;;;25.70;36.90;;;;;;5062043;28;20413;-70
2024/02/27 11:42:05;;;;;;;;;;;25.70;37.00;;;;;;5060946;28;19936;-70
2024/02/27 11:44:32;;;;;;;;;;;25.70;37.10;;;;;;5070912;28;19925;-70
2024/02/27 11:47:23;;;;;;;;;;;25.70;37.10;;;;;;5066743;28;19943;-70
2024/02/27 11:49:50;;;;;;;;;;;25.60;37.70;;;;;;5068629;28;20343;-70
2024/02/27 11:52:17;;;;;;;;;;;25.60;37.20;;;;;;5067979;28;19924;-71
2024/02/27 11:54:43;;;;;;;;;;;25.60;37.20;;;;;;5065624;28;20409;-70
2024/02/27 11:57:11;;;;;;;;;;;25.60;37.20;;;;;;5065133;28;19932;-71
2024/02/27 11:59:38;;;;;;;;;;;25.50;37.20;;;;;;5064963;28;19924;-71
2024/02/27 12:02:06;;;;;;;;;;;25.50;37.20;;;;;;5066342;28;19932;-72
2024/02/27 12:04:33;;;;;;;;;;;25.50;37.30;;;;;;5063716;28;19950;-68
2024/02/27 12:07:00;;;;;;;;;;;25.40;37.30;;;;;;5067935;28;20011;-71
2024/02/27 12:09:27;;;;;;;;;;;25.40;37.30;;;;;;5064033;28;19932;-70
2024/02/27 12:11:55;;;;;;;;;;;25.50;37.40;;;;;;5066214;28;19932;-68
2024/02/27 12:14:22;;;;;;;;;;;25.40;37.40;;;;;;5065674;28;20034;-69
2024/02/27 12:16:49;;;;;;;;;;;25.40;37.50;;;;;;5067557;28;19957;-68
2024/02/27 12:19:16;;;;;;;;;;;25.40;37.50;;;;;;5063941;28;19942;-69
2024/02/27 12:21:44;;;;;;;;;;;25.40;37.50;;;;;;5068487;28;20378;-69
2024/02/27 12:24:15;;;;;;;;;;;25.40;37.50;;;;;;5046791;28;19943;-69
2024/02/27 12:26:42;;;;;;;;;;;25.30;37.70;;;;;;5068962;28;19942;-70
2024/02/27 12:29:09;;;;;;;;;;;25.40;37.80;;;;;;5093664;27;19943;-71
2024/02/27 12:31:37;;;;;;;;;;;25.40;37.80;;;;;;5072051;28;20348;-69
2024/02/27 12:34:05;;;;;;;;;;;25.40;37.90;;;;;;5062065;28;20054;-70
2024/02/27 12:36:33;;;;;;;;;;;25.40;38.00;;;;;;5065902;28;20011;-70
2024/02/27 12:39:00;;;;;;;;;;;25.40;38.00;;;;;;5066911;28;19970;-69
2024/02/27 12:41:27;;;;;;;;;;;25.40;38.10;;;;;;5062883;28;19928;-68
2024/02/27 12:43:54;;;;;;;;;;;25.40;38.10;;;;;;5062847;28;19932;-69
2024/02/27 12:46:22;;;;;;;;;;;25.40;38.10;;;;;;5066679;28;19933;-68
2024/02/27 12:48:54;;;;;;;;;;;25.40;38.20;;;;;;5063537;28;19964;-67
2024/02/27 12:51:21;;;;;;;;;;;25.40;38.30;;;;;;5062974;28;19932;-67
2024/02/27 12:53:48;;;;;;;;;;;25.40;38.30;;;;;;5068158;28;19997;-68
2024/02/27 12:56:16;;;;;;;;;;;25.40;38.30;;;;;;5065308;28;19928;-71
2024/02/27 12:58:48;;;;;;;;;;;25.40;38.30;;;;;;5068566;28;19958;-67
2024/02/27 13:01:15;;;;;;;;;;;25.40;38.30;;;;;;5066000;28;20386;-68
2024/02/27 13:03:42;;;;;;;;;;;25.40;38.20;;;;;;5064255;28;20023;-69
2024/02/27 13:06:10;;;;;;;;;;;25.40;38.30;;;;;;5066706;28;19924;-70
2024/02/27 13:08:37;;;;;;;;;;;25.40;38.30;;;;;;5067254;28;19924;-68
2024/02/27 13:11:04;;;;;;;;;;;25.40;38.40;;;;;;5061894;28;19932;-69
2024/02/27 13:13:35;;;;;;;;;;;25.40;38.40;;;;;;5067353;28;19963;-72
2024/02/27 13:16:03;;;;;;;;;;;25.40;38.40;;;;;;5067211;28;19931;-69
2024/02/27 13:18:31;;;;;;;;;;;25.40;38.40;;;;;;5074653;28;19929;-71
2024/02/27 13:20:59;;;;;;;;;;;25.40;38.40;;;;;;5069387;28;19932;-69
2024/02/27 13:23:26;;;;;;;;;;;25.50;38.40;;;;;;5071928;28;20022;-69
2024/02/27 13:25:56;;;;;;;;;;;25.50;38.40;;;;;;5060337;28;19974;-70
2024/02/27 13:28:29;;;;;;;;;;;25.50;38.40;;;;;;5058826;28;19938;-70
2024/02/27 13:30:57;;;;;;;;;;;25.50;38.40;;;;;;5065321;28;19971;-66
2024/02/27 13:33:25;;;;;;;;;;;25.50;38.50;;;;;;5065739;28;20903;-68
2024/02/27 13:35:54;;;;;;;;;;;25.50;38.40;;;;;;5068272;28;20292;-71
2024/02/27 13:38:21;;;;;;;;;;;25.50;38.60;;;;;;5064029;28;19970;-67
2024/02/27 13:40:48;;;;;;;;;;;25.50;38.60;;;;;;5066754;28;19928;-67
2024/02/27 13:43:17;;;;;;;;;;;25.50;38.60;;;;;;5070469;28;20402;-72
2024/02/27 13:45:44;;;;;;;;;;;25.50;38.80;;;;;;5063219;28;19924;-69
2024/02/27 13:48:11;;;;;;;;;;;25.50;38.80;;;;;;5096910;28;20301;-68
2024/02/27 13:50:38;;;;;;;;;;;25.50;38.90;;;;;;5067806;28;19924;-68
2024/02/27 13:53:10;;;;;;;;;;;25.50;38.90;;;;;;5063467;28;19932;-66
2024/02/27 13:55:37;;;;;;;;;;;25.40;38.90;;;;;;5073401;28;20014;-66
2024/02/27 13:58:04;;;;;;;;;;;25.40;38.90;;;;;;5066279;28;19928;-66
2024/02/27 14:00:31;;;;;;;;;;;25.40;38.90;;;;;;5067085;28;19940;-66
2024/02/27 14:02:58;;;;;;;;;;;25.40;39.50;;;;;;5065087;28;19933;-64
2024/02/27 14:05:25;;;;;;;;;;;25.40;39.10;;;;;;5063436;28;20328;-61
2024/02/27 14:07:53;;;;;;;;;;;25.40;39.10;;;;;;5063215;28;19928;-62
2024/02/27 14:10:20;;;;;;;;;;;25.40;39.20;;;;;;5059695;28;19971;-63
2024/02/27 14:12:47;;;;;;;;;;;25.40;39.20;;;;;;5061899;28;20343;-62
2024/02/27 14:15:14;;;;;;;;;;;25.40;39.20;;;;;;5060819;28;19975;-68
2024/02/27 14:17:41;;;;;;;;;;;25.40;39.40;;;;;;5092898;28;19931;-68
2024/02/27 14:20:09;;;;;;;;;;;25.40;39.60;;;;;;5066415;28;19940;-67
2024/02/27 14:22:39;;;;;;;;;;;25.40;39.70;;;;;;5067246;28;19940;-67